Bagley, Wisconsin
Current Conditions -  °F | °C
As of 8:15 PM on Saturday 25 Oct 2014 (Local Time) from KPDC Reporting Station
Clear Clear  
Wind Chill: 54°   Ceiling: Unl
Heat Index: 54°   Visibility: 10mi
Dew Point: 27°   Wind: 5mph
Humidity: 36%   Direction: 260°W
Pressure: 30.02"   Gusts: NA
Location:  42.91°N, 91.1°W
Report Text: KPDC 260115Z AUTO 26004KT 10SM CLR 12/M03 A3002 RMK AO2 T01231026
Loading
Personal Weather Stations






























Interactive Weather Map
Tropical Storm Tracking
New forecast layout! Learn more

10-Day Weather Forecast

Advertisements
Track Severe Weather on mobile